createdAt,value
2019-05-22T00:01:17.169Z,12.30
2019-05-22T00:03:53.676Z,12.37
2019-05-22T00:06:26.764Z,17.30
2019-05-22T00:08:58.744Z,13.72
2019-05-22T00:11:30.188Z,10.10
2019-05-22T00:14:02.901Z,11.35
2019-05-22T00:16:35.226Z,14.43
2019-05-22T00:19:06.803Z,14.58
2019-05-22T00:21:40.379Z,9.63
2019-05-22T00:24:12.859Z,12.47
2019-05-22T00:26:45.090Z,9.80
2019-05-22T00:29:18.464Z,13.75
2019-05-22T00:31:51.056Z,12.23
2019-05-22T00:34:24.201Z,13.88
2019-05-22T00:36:56.715Z,12.93
2019-05-22T00:39:30.707Z,12.30
2019-05-22T00:42:02.186Z,11.97
2019-05-22T00:44:34.139Z,13.28
2019-05-22T00:47:07.405Z,12.07
2019-05-22T00:49:40.650Z,8.35
2019-05-22T00:52:23.952Z,9.73
2019-05-22T00:55:01.054Z,13.88
2019-05-22T00:57:35.276Z,13.65
2019-05-22T01:00:20.347Z,14.18
2019-05-22T01:02:56.638Z,13.08
2019-05-22T01:05:29.643Z,12.30
2019-05-22T01:08:02.661Z,9.58
2019-05-22T01:10:35.421Z,13.98
2019-05-22T01:13:07.743Z,13.58
2019-05-22T01:15:40.880Z,16.62
2019-05-22T01:18:15.251Z,10.98
2019-05-22T01:20:49.159Z,12.65
2019-05-22T01:23:23.474Z,11.65
2019-05-22T01:25:55.656Z,11.60
2019-05-22T01:28:27.939Z,15.00
2019-05-22T01:31:04.841Z,11.28
2019-05-22T01:33:41.767Z,11.45
2019-05-22T01:36:15.038Z,10.65
2019-05-22T01:38:48.674Z,9.23
2019-05-22T01:41:28.991Z,16.90
2019-05-22T01:44:03.782Z,13.68
2019-05-22T01:46:36.912Z,14.70
2019-05-22T01:49:12.066Z,15.40
2019-05-22T01:51:45.815Z,13.38
2019-05-22T01:54:19.146Z,14.33
2019-05-22T01:56:51.622Z,10.50
2019-05-22T01:59:23.482Z,12.75
2019-05-22T02:01:57.817Z,15.48
2019-05-22T02:04:30.648Z,11.85
2019-05-22T02:07:04.008Z,15.38
2019-05-22T02:09:38.012Z,20.05
2019-05-22T02:12:18.225Z,13.40
2019-05-22T02:14:53.056Z,14.63
2019-05-22T02:17:31.718Z,15.00
2019-05-22T02:20:06.785Z,14.68
2019-05-22T02:22:40.753Z,14.58
2019-05-22T02:25:13.002Z,16.20
2019-05-22T02:27:46.392Z,14.78
2019-05-22T02:30:18.952Z,14.23
2019-05-22T02:32:52.709Z,14.05
2019-05-22T02:35:25.563Z,10.35
2019-05-22T02:37:57.362Z,13.35
2019-05-22T02:40:33.369Z,12.98
2019-05-22T02:43:06.970Z,13.45
2019-05-22T02:45:38.437Z,12.33
2019-05-22T02:48:11.307Z,12.70
2019-05-22T02:50:42.733Z,14.03
2019-05-22T02:53:15.045Z,14.38
2019-05-22T02:55:47.652Z,16.42
2019-05-22T02:58:21.174Z,14.07
2019-05-22T03:01:02.848Z,16.37
2019-05-22T03:03:35.416Z,14.53
2019-05-22T03:06:12.483Z,16.37
2019-05-22T03:08:59.694Z,13.30
2019-05-22T03:11:37.452Z,13.00
2019-05-22T03:14:10.845Z,18.23
2019-05-22T03:17:00.643Z,12.05
2019-05-22T03:19:45.613Z,14.60
2019-05-22T03:22:24.410Z,19.50
2019-05-22T03:24:58.243Z,20.87
2019-05-22T03:27:44.666Z,24.50
2019-05-22T03:30:22.495Z,17.90
2019-05-22T03:32:56.677Z,15.35
2019-05-22T03:35:30.983Z,17.00
2019-05-22T03:38:03.904Z,17.92
2019-05-22T03:40:37.262Z,17.67
2019-05-22T03:43:20.853Z,24.70
2019-05-22T03:45:56.526Z,23.10
2019-05-22T03:48:30.803Z,33.70
2019-05-22T03:51:14.197Z,34.45
2019-05-22T03:53:47.954Z,25.52
2019-05-22T03:56:22.035Z,25.23
2019-05-22T03:58:55.360Z,20.92
2019-05-22T04:01:26.791Z,21.10
2019-05-22T04:03:59.663Z,29.27
2019-05-22T04:06:32.883Z,12.73
2019-05-22T04:09:11.415Z,15.38
2019-05-22T04:11:46.561Z,14.87
2019-05-22T04:14:19.534Z,19.05
2019-05-22T04:16:51.910Z,20.27
2019-05-22T04:19:23.389Z,14.78
2019-05-22T04:21:56.165Z,14.73
2019-05-22T04:24:27.907Z,19.77
2019-05-22T04:27:01.307Z,19.23
2019-05-22T04:29:32.618Z,22.42
2019-05-22T04:32:15.516Z,19.30
2019-05-22T04:34:48.707Z,21.20
2019-05-22T04:37:20.135Z,14.68
2019-05-22T04:39:54.577Z,15.68
2019-05-22T04:42:29.323Z,41.85
2019-05-22T04:45:10.191Z,25.62
2019-05-22T04:47:44.909Z,26.73
2019-05-22T04:50:17.958Z,24.65
2019-05-22T04:52:50.613Z,21.60
2019-05-22T04:55:24.617Z,23.15
2019-05-22T04:57:57.423Z,22.00
2019-05-22T05:00:30.230Z,24.55
2019-05-22T05:03:02.426Z,20.43
2019-05-22T05:05:45.776Z,26.35
2019-05-22T05:08:18.158Z,23.47
2019-05-22T05:10:51.088Z,26.35
2019-05-22T05:13:23.889Z,28.20
2019-05-22T05:15:55.435Z,30.48
2019-05-22T05:18:27.562Z,25.00
2019-05-22T05:20:58.978Z,28.70
2019-05-22T05:23:30.366Z,29.05
2019-05-22T05:26:02.040Z,30.95
2019-05-22T05:28:33.601Z,34.50
2019-05-22T05:31:05.120Z,31.30
2019-05-22T05:33:48.931Z,29.48
2019-05-22T05:36:21.813Z,26.07
2019-05-22T05:38:54.884Z,35.35
2019-05-22T05:41:28.533Z,30.92
2019-05-22T05:44:00.805Z,31.15
2019-05-22T05:46:32.216Z,39.05
2019-05-22T05:49:04.393Z,31.37
2019-05-22T05:51:38.205Z,31.30
2019-05-22T05:54:12.899Z,31.52
2019-05-22T05:56:49.093Z,30.55
2019-05-22T05:59:22.058Z,31.30
2019-05-22T06:01:54.836Z,27.02
2019-05-22T06:04:34.630Z,31.50
2019-05-22T06:07:17.723Z,28.42
2019-05-22T06:09:51.749Z,26.60
2019-05-22T06:12:23.317Z,29.98
2019-05-22T06:14:57.028Z,25.30
2019-05-22T06:17:59.702Z,29.30
2019-05-22T06:20:31.477Z,35.38
2019-05-22T06:23:27.393Z,25.88
2019-05-22T06:25:59.409Z,27.67
2019-05-22T06:28:38.196Z,24.12
2019-05-22T06:31:14.680Z,27.20
2019-05-22T06:33:46.970Z,30.37
2019-05-22T06:36:18.800Z,31.33
2019-05-22T06:38:55.801Z,29.45
2019-05-22T06:41:29.447Z,36.77
2019-05-22T06:44:30.712Z,36.77
2019-05-22T06:47:03.088Z,37.08
2019-05-22T06:49:39.191Z,37.60
2019-05-22T06:52:11.450Z,36.88
2019-05-22T06:54:43.744Z,38.63
2019-05-22T06:57:17.153Z,34.45
2019-05-22T07:00:10.834Z,35.25
2019-05-22T07:02:23.798Z,35.03
2019-05-22T07:04:55.938Z,41.05
2019-05-22T07:07:27.685Z,45.23
2019-05-22T07:09:59.493Z,56.48
2019-05-22T07:12:34.925Z,60.92
2019-05-22T07:15:10.877Z,69.97
2019-05-22T07:17:42.523Z,62.95
2019-05-22T07:20:15.720Z,74.50
2019-05-22T07:22:47.640Z,87.82
2019-05-22T07:25:20.368Z,93.95
2019-05-22T07:27:51.839Z,93.12
2019-05-22T07:30:23.456Z,87.70
2019-05-22T07:33:14.583Z,72.08
2019-05-22T07:36:07.679Z,53.40
2019-05-22T07:38:20.218Z,49.73
2019-05-22T07:40:53.093Z,43.55
2019-05-22T07:43:24.566Z,42.33
2019-05-22T07:45:57.998Z,39.48
2019-05-22T07:48:31.127Z,45.15
2019-05-22T07:51:04.090Z,46.15
2019-05-22T07:53:35.700Z,40.30
2019-05-22T07:56:10.245Z,44.00
2019-05-22T07:58:44.711Z,34.08
2019-05-22T08:01:18.118Z,30.17
2019-05-22T08:03:50.295Z,32.38
2019-05-22T08:06:22.465Z,28.05
2019-05-22T08:08:54.600Z,22.30
2019-05-22T08:11:26.324Z,24.63
2019-05-22T08:13:58.247Z,22.07
2019-05-22T08:16:29.717Z,17.55
2019-05-22T08:19:02.424Z,20.40
2019-05-22T08:21:34.134Z,21.35
2019-05-22T08:24:05.869Z,24.25
2019-05-22T08:26:53.188Z,22.85
2019-05-22T08:29:12.405Z,23.77
2019-05-22T08:31:44.468Z,22.25
2019-05-22T08:34:16.574Z,27.22
2019-05-22T08:36:49.413Z,32.75
2019-05-22T08:39:21.590Z,29.00
2019-05-22T08:41:54.059Z,33.33
2019-05-22T08:44:28.690Z,28.60
2019-05-22T08:47:01.196Z,30.65
2019-05-22T08:49:33.112Z,28.42
2019-05-22T08:52:22.155Z,25.95
2019-05-22T08:54:39.969Z,29.02
2019-05-22T08:57:12.574Z,26.52
2019-05-22T08:59:44.597Z,20.45
2019-05-22T09:02:17.244Z,25.25
2019-05-22T09:04:49.838Z,16.70
2019-05-22T09:07:21.599Z,18.85
2019-05-22T09:09:53.096Z,16.48
2019-05-22T09:12:26.365Z,14.68
2019-05-22T09:14:57.969Z,15.18
2019-05-22T09:17:29.967Z,16.65
2019-05-22T09:20:01.772Z,14.33
2019-05-22T09:22:40.519Z,14.10
2019-05-22T09:25:11.606Z,15.83
2019-05-22T09:27:43.219Z,16.20
2019-05-22T09:30:15.194Z,14.93
2019-05-22T09:32:47.664Z,21.70
2019-05-22T09:35:20.484Z,18.70
2019-05-22T09:37:51.856Z,11.65
2019-05-22T09:40:23.323Z,14.55
2019-05-22T09:42:54.826Z,13.25
2019-05-22T09:45:26.265Z,13.70
2019-05-22T09:47:58.043Z,12.95
2019-05-22T09:50:30.315Z,12.03
2019-05-22T09:53:02.061Z,10.65
2019-05-22T09:55:33.720Z,12.47
2019-05-22T09:58:05.909Z,11.55
2019-05-22T10:00:38.142Z,11.78
2019-05-22T10:03:09.756Z,27.00
2019-05-22T10:05:41.487Z,11.38
2019-05-22T10:08:12.789Z,14.33
2019-05-22T10:10:44.677Z,11.63
2019-05-22T10:13:16.144Z,11.12
2019-05-22T10:15:47.519Z,8.80
2019-05-22T10:18:18.887Z,12.70
2019-05-22T10:20:50.422Z,13.00
2019-05-22T10:23:23.142Z,9.18
2019-05-22T10:25:54.667Z,11.12
2019-05-22T10:28:26.427Z,8.23
2019-05-22T10:30:58.679Z,9.25
2019-05-22T10:33:30.498Z,10.82
2019-05-22T10:36:01.954Z,11.30
2019-05-22T10:38:33.535Z,11.05
2019-05-22T10:41:05.576Z,13.98
2019-05-22T10:43:38.085Z,12.50
2019-05-22T10:46:10.195Z,12.25
2019-05-22T10:48:43.320Z,10.18
2019-05-22T10:51:15.776Z,14.28
2019-05-22T10:53:50.988Z,15.25
2019-05-22T10:56:22.405Z,14.47
2019-05-22T10:58:54.227Z,16.40
2019-05-22T11:01:25.924Z,16.97
2019-05-22T11:03:57.990Z,15.93
2019-05-22T11:06:29.913Z,13.68
2019-05-22T11:09:01.497Z,13.98
2019-05-22T11:11:33.737Z,15.53
2019-05-22T11:14:09.283Z,14.03
2019-05-22T11:16:39.490Z,14.70
2019-05-22T11:19:11.323Z,12.95
2019-05-22T11:21:43.575Z,15.23
2019-05-22T11:24:15.594Z,12.53
2019-05-22T11:26:47.326Z,18.87
2019-05-22T11:29:18.755Z,14.03
2019-05-22T11:31:50.759Z,12.03
2019-05-22T11:34:22.759Z,15.00
2019-05-22T11:36:55.999Z,14.98
2019-05-22T11:39:38.624Z,17.45
2019-05-22T11:42:03.006Z,16.02
2019-05-22T11:44:34.552Z,15.88
2019-05-22T11:47:06.497Z,14.63
2019-05-22T11:49:38.963Z,15.10
2019-05-22T11:52:12.255Z,13.80
2019-05-22T11:54:45.894Z,14.40
2019-05-22T11:57:18.922Z,15.78
2019-05-22T11:59:50.373Z,14.60
2019-05-22T12:02:23.635Z,14.87
2019-05-22T12:04:55.015Z,17.15
2019-05-22T12:07:27.158Z,13.40
2019-05-22T12:09:59.273Z,17.90
2019-05-22T12:12:35.012Z,20.88
2019-05-22T12:15:07.285Z,24.60
2019-05-22T12:17:39.459Z,15.25
2019-05-22T12:20:13.326Z,15.55
2019-05-22T12:22:44.707Z,15.68
2019-05-22T12:25:19.067Z,16.30
2019-05-22T12:27:50.583Z,17.07
2019-05-22T12:30:24.009Z,17.98
2019-05-22T12:32:56.961Z,17.50
2019-05-22T12:35:29.365Z,19.67
2019-05-22T12:38:01.338Z,20.52
2019-05-22T12:40:35.992Z,18.57
2019-05-22T12:43:07.836Z,22.25
2019-05-22T12:45:39.384Z,21.57
2019-05-22T12:48:12.270Z,16.35
2019-05-22T12:50:45.772Z,24.80
2019-05-22T12:53:17.416Z,22.32
2019-05-22T12:55:49.164Z,20.52
2019-05-22T12:58:20.689Z,19.30
2019-05-22T13:00:54.525Z,16.50
2019-05-22T13:03:26.738Z,17.50
2019-05-22T13:05:58.595Z,17.57
2019-05-22T13:08:31.452Z,22.40
2019-05-22T13:11:05.489Z,26.55
2019-05-22T13:13:37.332Z,24.57
2019-05-22T13:16:09.806Z,26.57
2019-05-22T13:18:42.425Z,22.40
2019-05-22T13:21:18.423Z,18.05
2019-05-22T13:23:51.418Z,17.20
2019-05-22T13:26:25.439Z,18.30
2019-05-22T13:28:57.811Z,13.83
2019-05-22T13:31:29.920Z,15.60
2019-05-22T13:34:02.517Z,14.68
2019-05-22T13:36:34.803Z,24.25
2019-05-22T13:39:09.846Z,23.22
2019-05-22T13:41:41.604Z,29.63
2019-05-22T13:44:13.433Z,23.38
2019-05-22T13:46:46.054Z,21.45
2019-05-22T13:49:17.516Z,20.48
2019-05-22T13:51:49.451Z,17.85
2019-05-22T13:54:21.947Z,15.63
2019-05-22T13:56:53.292Z,13.20
2019-05-22T13:59:25.641Z,10.58
2019-05-22T14:01:57.923Z,13.80
2019-05-22T14:04:29.450Z,9.40
2019-05-22T14:07:01.419Z,6.20
2019-05-22T14:09:33.000Z,8.80
2019-05-22T14:12:06.271Z,9.90
2019-05-22T14:14:37.832Z,12.45
2019-05-22T14:17:09.569Z,8.70
2019-05-22T14:19:41.327Z,7.22
2019-05-22T14:22:12.869Z,8.35
2019-05-22T14:24:44.320Z,10.98
2019-05-22T14:27:16.281Z,7.55
2019-05-22T14:29:48.111Z,10.03
2019-05-22T14:32:20.179Z,12.95
2019-05-22T14:34:51.715Z,12.88
2019-05-22T14:37:24.404Z,10.15
2019-05-22T14:39:55.797Z,15.68
2019-05-22T14:42:27.663Z,21.00
2019-05-22T14:44:59.291Z,24.80
2019-05-22T14:47:31.001Z,24.02
2019-05-22T14:50:03.767Z,31.60
2019-05-22T14:52:35.672Z,21.85
2019-05-22T14:55:08.542Z,24.15
2019-05-22T14:57:40.985Z,21.37
2019-05-22T15:00:14.738Z,14.53
2019-05-22T15:02:46.320Z,13.60
2019-05-22T15:05:19.381Z,12.33
2019-05-22T15:07:50.787Z,13.65
2019-05-22T15:10:23.050Z,9.55
2019-05-22T15:12:54.709Z,11.12
2019-05-22T15:15:27.205Z,11.83
2019-05-22T15:17:59.268Z,10.85
2019-05-22T15:20:35.408Z,14.40
2019-05-22T15:23:07.705Z,13.32
2019-05-22T15:25:39.420Z,11.15
2019-05-22T15:28:12.458Z,11.12
2019-05-22T15:30:44.201Z,10.70
2019-05-22T15:33:16.694Z,11.88
2019-05-22T15:35:48.230Z,13.48
2019-05-22T15:38:21.569Z,7.92
2019-05-22T15:40:54.386Z,12.20
2019-05-22T15:43:27.671Z,8.63
2019-05-22T15:46:01.294Z,8.80
2019-05-22T15:48:34.697Z,8.25
2019-05-22T15:51:10.284Z,10.88
2019-05-22T15:53:43.252Z,11.68
2019-05-22T15:56:15.490Z,8.20
2019-05-22T15:58:50.464Z,10.28
2019-05-22T16:01:25.566Z,11.88
2019-05-22T16:03:58.028Z,8.15
2019-05-22T16:06:32.279Z,8.38
2019-05-22T16:09:06.506Z,8.70
2019-05-22T16:11:39.014Z,8.43
2019-05-22T16:14:10.915Z,8.58
2019-05-22T16:16:45.422Z,9.00
2019-05-22T16:19:17.059Z,7.85
2019-05-22T16:21:48.604Z,9.35
2019-05-22T16:24:20.932Z,9.85
2019-05-22T16:26:53.213Z,9.75
2019-05-22T16:29:25.571Z,9.08
2019-05-22T16:32:00.536Z,7.30
2019-05-22T16:34:32.228Z,10.13
2019-05-22T16:37:04.440Z,10.18
2019-05-22T16:39:39.590Z,9.93
2019-05-22T16:42:11.785Z,11.38
2019-05-22T16:44:44.433Z,9.58
2019-05-22T16:47:20.031Z,11.88
2019-05-22T16:49:53.731Z,10.75
2019-05-22T16:52:27.042Z,11.48
2019-05-22T16:54:58.791Z,10.65
2019-05-22T16:57:31.655Z,11.57
2019-05-22T17:00:03.738Z,10.85
2019-05-22T17:02:37.938Z,10.35
2019-05-22T17:05:12.335Z,10.05
2019-05-22T17:07:44.405Z,13.80
2019-05-22T17:10:17.030Z,9.78
2019-05-22T17:12:49.804Z,8.88
2019-05-22T17:15:21.905Z,9.75
2019-05-22T17:17:54.245Z,11.03
2019-05-22T17:20:28.222Z,9.48
2019-05-22T17:22:59.964Z,9.73
2019-05-22T17:25:31.537Z,12.03
2019-05-22T17:28:06.887Z,11.53
2019-05-22T17:30:40.104Z,10.98
2019-05-22T17:33:12.003Z,11.38
2019-05-22T17:35:44.769Z,10.82
2019-05-22T17:38:19.028Z,12.23
2019-05-22T17:40:51.330Z,12.80
2019-05-22T17:43:25.769Z,12.40
2019-05-22T17:45:57.799Z,17.12
2019-05-22T17:48:30.168Z,11.80
2019-05-22T17:51:05.214Z,12.80
2019-05-22T17:53:37.449Z,13.28
2019-05-22T17:56:09.235Z,16.05
2019-05-22T17:58:41.444Z,11.88
2019-05-22T18:01:13.557Z,11.78
2019-05-22T18:03:45.340Z,10.30
2019-05-22T18:06:17.394Z,11.20
2019-05-22T18:08:49.022Z,10.85
2019-05-22T18:11:20.755Z,9.23
2019-05-22T18:14:00.961Z,11.95
2019-05-22T18:16:32.807Z,12.98
2019-05-22T18:19:05.658Z,13.53
2019-05-22T18:21:38.642Z,10.23
2019-05-22T18:24:10.516Z,12.98
2019-05-22T18:26:42.296Z,12.33
2019-05-22T18:29:15.285Z,11.90
2019-05-22T18:31:47.425Z,11.25
2019-05-22T18:34:19.317Z,9.63
2019-05-22T18:36:51.294Z,11.25
2019-05-22T18:39:23.468Z,12.82
2019-05-22T18:41:55.099Z,12.65
2019-05-22T18:44:26.723Z,11.53
2019-05-22T18:46:59.852Z,12.60
2019-05-22T18:49:33.529Z,16.62
2019-05-22T18:52:06.240Z,8.75
2019-05-22T18:54:38.030Z,11.90
2019-05-22T18:57:09.802Z,10.05
2019-05-22T18:59:42.968Z,9.35
2019-05-22T19:02:14.879Z,10.30
2019-05-22T19:04:46.679Z,9.08
2019-05-22T19:07:18.373Z,12.58
2019-05-22T19:09:50.017Z,9.03
2019-05-22T19:12:21.715Z,21.33
2019-05-22T19:14:53.400Z,11.70
2019-05-22T19:17:33.255Z,10.90
2019-05-22T19:22:39.942Z,14.38
2019-05-22T19:25:13.648Z,9.38
2019-05-22T19:27:45.301Z,16.65
2019-05-22T19:30:19.779Z,12.40
2019-05-22T19:32:53.221Z,10.82
2019-05-22T19:35:24.982Z,10.23
2019-05-22T19:37:57.390Z,8.38
2019-05-22T19:40:29.490Z,9.88
2019-05-22T19:43:01.569Z,8.45
2019-05-22T19:45:33.532Z,8.20
2019-05-22T19:48:06.738Z,10.13
2019-05-22T19:50:39.433Z,9.28
2019-05-22T19:53:18.776Z,11.97
2019-05-22T19:55:47.184Z,13.22
2019-05-22T19:58:22.044Z,11.93
2019-05-22T20:00:52.815Z,11.05
2019-05-22T20:03:24.550Z,10.68
2019-05-22T20:05:57.021Z,12.63
2019-05-22T20:08:29.649Z,12.55
2019-05-22T20:11:01.511Z,10.25
2019-05-22T20:13:33.795Z,15.55
2019-05-22T20:16:06.057Z,10.98
2019-05-22T20:18:38.301Z,9.88
2019-05-22T20:21:10.591Z,10.93
2019-05-22T20:23:42.451Z,12.13
2019-05-22T20:26:14.144Z,9.90
2019-05-22T20:28:46.164Z,9.65
2019-05-22T20:31:17.938Z,10.28
2019-05-22T20:33:49.596Z,9.08
2019-05-22T20:36:21.720Z,11.45
2019-05-22T20:38:55.410Z,10.20
2019-05-22T20:41:27.144Z,7.90
2019-05-22T20:44:01.375Z,7.42
2019-05-22T20:46:37.629Z,7.33
2019-05-22T20:49:09.173Z,8.13
2019-05-22T20:51:41.462Z,14.53
2019-05-22T20:54:15.418Z,10.25
2019-05-22T20:56:48.316Z,9.30
2019-05-22T20:59:21.817Z,11.12
2019-05-22T21:01:54.354Z,9.95
2019-05-22T21:04:27.524Z,7.45
2019-05-22T21:07:02.129Z,11.90
2019-05-22T21:09:35.882Z,7.72
2019-05-22T21:12:08.563Z,8.45
2019-05-22T21:14:41.169Z,8.28
2019-05-22T21:17:14.794Z,8.13
2019-05-22T21:19:47.523Z,8.03
2019-05-22T21:22:20.715Z,7.15
2019-05-22T21:24:53.440Z,8.35
2019-05-22T21:27:25.026Z,9.10
2019-05-22T21:29:56.600Z,8.60
2019-05-22T21:32:28.898Z,8.53
2019-05-22T21:35:00.910Z,9.20
2019-05-22T21:37:32.810Z,8.03
2019-05-22T21:40:07.140Z,7.90
2019-05-22T21:42:41.442Z,8.20
2019-05-22T21:45:13.193Z,7.05
2019-05-22T21:47:46.552Z,7.87
2019-05-22T21:50:20.084Z,6.90
2019-05-22T21:52:52.952Z,6.72
2019-05-22T21:55:25.745Z,7.35
2019-05-22T21:57:57.685Z,7.70
2019-05-22T22:00:42.339Z,8.70
2019-05-22T22:03:16.767Z,8.03
2019-05-22T22:05:48.326Z,8.45
2019-05-22T22:08:19.950Z,7.83
2019-05-22T22:10:51.761Z,8.45
2019-05-22T22:13:24.039Z,8.75
2019-05-22T22:15:55.776Z,8.60
2019-05-22T22:18:27.689Z,9.28
2019-05-22T22:20:59.393Z,8.90
2019-05-22T22:23:31.018Z,9.80
2019-05-22T22:26:03.471Z,8.80
2019-05-22T22:28:36.029Z,9.03
2019-05-22T22:31:09.141Z,9.15
2019-05-22T22:33:42.570Z,8.13
2019-05-22T22:36:14.545Z,10.30
2019-05-22T22:38:47.102Z,9.00
2019-05-22T22:41:19.966Z,9.23
2019-05-22T22:43:52.958Z,8.85
2019-05-22T22:46:45.634Z,9.75
2019-05-22T22:49:18.934Z,8.90
2019-05-22T22:51:53.349Z,9.50
2019-05-22T22:54:26.903Z,9.65
2019-05-22T22:57:00.294Z,8.73
2019-05-22T22:59:32.332Z,11.55
2019-05-22T23:02:06.792Z,10.65
2019-05-22T23:04:39.056Z,9.95
2019-05-22T23:07:10.787Z,10.32
2019-05-22T23:09:44.426Z,11.73
2019-05-22T23:12:17.934Z,10.43
2019-05-22T23:14:52.777Z,10.72
2019-05-22T23:17:24.977Z,13.28
2019-05-22T23:19:55.326Z,11.80
2019-05-22T23:22:27.241Z,11.48
2019-05-22T23:25:00.246Z,12.18
2019-05-22T23:27:33.234Z,13.60
2019-05-22T23:30:09.318Z,15.65
2019-05-22T23:32:42.720Z,13.30
2019-05-22T23:35:14.426Z,16.75
2019-05-22T23:37:46.621Z,14.50
2019-05-22T23:40:21.305Z,15.40
2019-05-22T23:42:53.745Z,17.60
2019-05-22T23:45:25.786Z,15.80
2019-05-22T23:48:04.061Z,17.30
2019-05-22T23:50:38.492Z,17.20
2019-05-22T23:53:11.642Z,18.57
2019-05-22T23:55:45.820Z,20.10
2019-05-22T23:58:17.972Z,19.80
